sensor_id;sensor_type;location;lat;lon;timestamp;temperature;humidity
19348;DHT22;9810;52.480;9.806;2022-12-29T00:02:24;9.40;99.90
19348;DHT22;9810;52.480;9.806;2022-12-29T00:04:51;9.40;99.90
19348;DHT22;9810;52.480;9.806;2022-12-29T00:07:19;9.40;99.90
19348;DHT22;9810;52.480;9.806;2022-12-29T00:09:46;9.40;99.90
19348;DHT22;9810;52.480;9.806;2022-12-29T00:12:13;9.50;99.90
19348;DHT22;9810;52.480;9.806;2022-12-29T00:14:42;9.50;99.90
19348;DHT22;9810;52.480;9.806;2022-12-29T00:17:26;9.50;99.90
19348;DHT22;9810;52.480;9.806;2022-12-29T00:19:53;9.50;99.90
19348;DHT22;9810;52.480;9.806;2022-12-29T00:22:38;9.60;99.90
19348;DHT22;9810;52.480;9.806;2022-12-29T00:25:22;9.60;99.90
19348;DHT22;9810;52.480;9.806;2022-12-29T00:28:08;9.70;99.90
19348;DHT22;9810;52.480;9.806;2022-12-29T00:30:58;9.70;99.90
19348;DHT22;9810;52.480;9.806;2022-12-29T00:33:43;9.80;99.90
19348;DHT22;9810;52.480;9.806;2022-12-29T00:36:30;9.70;99.90
19348;DHT22;9810;52.480;9.806;2022-12-29T00:39:00;9.70;99.90
19348;DHT22;9810;52.480;9.806;2022-12-29T00:41:44;9.80;99.90
19348;DHT22;9810;52.480;9.806;2022-12-29T00:44:29;9.80;99.90
19348;DHT22;9810;52.480;9.806;2022-12-29T00:46:58;9.80;99.90
19348;DHT22;9810;52.480;9.806;2022-12-29T00:49:27;9.90;99.90
19348;DHT22;9810;52.480;9.806;2022-12-29T00:51:58;9.90;99.90
19348;DHT22;9810;52.480;9.806;2022-12-29T00:54:26;9.90;99.90
19348;DHT22;9810;52.480;9.806;2022-12-29T00:56:53;9.90;99.90
19348;DHT22;9810;52.480;9.806;2022-12-29T00:59:21;9.90;99.90
19348;DHT22;9810;52.480;9.806;2022-12-29T01:01:50;9.90;99.90
19348;DHT22;9810;52.480;9.806;2022-12-29T01:04:20;9.90;99.90
19348;DHT22;9810;52.480;9.806;2022-12-29T01:06:48;9.90;99.90
19348;DHT22;9810;52.480;9.806;2022-12-29T01:09:16;10.00;99.90
19348;DHT22;9810;52.480;9.806;2022-12-29T01:12:01;10.00;99.90
19348;DHT22;9810;52.480;9.806;2022-12-29T01:14:29;10.00;99.90
19348;DHT22;9810;52.480;9.806;2022-12-29T01:16:56;10.00;99.90
19348;DHT22;9810;52.480;9.806;2022-12-29T01:19:25;10.10;99.90
19348;DHT22;9810;52.480;9.806;2022-12-29T01:21:53;10.10;99.90
19348;DHT22;9810;52.480;9.806;2022-12-29T01:24:20;10.10;99.90
19348;DHT22;9810;52.480;9.806;2022-12-29T01:26:48;10.10;99.90
19348;DHT22;9810;52.480;9.806;2022-12-29T01:29:15;10.10;99.90
19348;DHT22;9810;52.480;9.806;2022-12-29T01:31:43;10.10;99.90
19348;DHT22;9810;52.480;9.806;2022-12-29T01:34:10;10.00;99.90
19348;DHT22;9810;52.480;9.806;2022-12-29T01:36:40;10.00;99.90
19348;DHT22;9810;52.480;9.806;2022-12-29T01:39:07;10.00;99.90
19348;DHT22;9810;52.480;9.806;2022-12-29T01:41:34;10.00;99.90
19348;DHT22;9810;52.480;9.806;2022-12-29T01:44:02;10.00;99.90
19348;DHT22;9810;52.480;9.806;2022-12-29T01:46:32;10.10;99.90
19348;DHT22;9810;52.480;9.806;2022-12-29T01:49:05;10.10;99.90
19348;DHT22;9810;52.480;9.806;2022-12-29T01:51:42;10.10;99.90
19348;DHT22;9810;52.480;9.806;2022-12-29T01:54:13;10.00;99.90
19348;DHT22;9810;52.480;9.806;2022-12-29T01:56:43;10.00;99.90
19348;DHT22;9810;52.480;9.806;2022-12-29T01:59:14;10.00;99.90
19348;DHT22;9810;52.480;9.806;2022-12-29T02:01:42;9.90;99.90
19348;DHT22;9810;52.480;9.806;2022-12-29T02:04:11;9.90;99.90
19348;DHT22;9810;52.480;9.806;2022-12-29T02:06:45;9.90;99.90
19348;DHT22;9810;52.480;9.806;2022-12-29T02:09:13;9.90;99.90
19348;DHT22;9810;52.480;9.806;2022-12-29T02:11:40;9.90;99.90
19348;DHT22;9810;52.480;9.806;2022-12-29T02:14:09;9.90;99.90
19348;DHT22;9810;52.480;9.806;2022-12-29T02:16:47;9.90;99.90
19348;DHT22;9810;52.480;9.806;2022-12-29T02:19:49;9.90;99.90
19348;DHT22;9810;52.480;9.806;2022-12-29T02:22:26;9.80;99.90
19348;DHT22;9810;52.480;9.806;2022-12-29T02:25:16;9.80;99.90
19348;DHT22;9810;52.480;9.806;2022-12-29T02:27:58;9.80;99.90
19348;DHT22;9810;52.480;9.806;2022-12-29T02:30:42;9.90;99.90
19348;DHT22;9810;52.480;9.806;2022-12-29T02:33:24;10.00;99.90
19348;DHT22;9810;52.480;9.806;2022-12-29T02:36:01;10.00;99.90
19348;DHT22;9810;52.480;9.806;2022-12-29T02:38:40;10.10;99.90
19348;DHT22;9810;52.480;9.806;2022-12-29T02:41:17;10.10;99.90
19348;DHT22;9810;52.480;9.806;2022-12-29T02:43:50;10.10;99.90
19348;DHT22;9810;52.480;9.806;2022-12-29T02:46:25;10.20;99.90
19348;DHT22;9810;52.480;9.806;2022-12-29T02:49:03;10.20;99.90
19348;DHT22;9810;52.480;9.806;2022-12-29T02:51:41;10.20;99.90
19348;DHT22;9810;52.480;9.806;2022-12-29T02:54:10;10.30;99.90
19348;DHT22;9810;52.480;9.806;2022-12-29T02:56:57;10.30;99.90
19348;DHT22;9810;52.480;9.806;2022-12-29T02:59:24;10.30;99.90
19348;DHT22;9810;52.480;9.806;2022-12-29T03:02:15;10.30;99.90
19348;DHT22;9810;52.480;9.806;2022-12-29T03:05:17;10.30;99.90
19348;DHT22;9810;52.480;9.806;2022-12-29T03:07:52;10.40;99.90
19348;DHT22;9810;52.480;9.806;2022-12-29T03:10:34;10.40;99.90
19348;DHT22;9810;52.480;9.806;2022-12-29T03:13:04;10.50;99.90
19348;DHT22;9810;52.480;9.806;2022-12-29T03:15:57;10.50;99.90
19348;DHT22;9810;52.480;9.806;2022-12-29T03:18:50;10.60;99.90
19348;DHT22;9810;52.480;9.806;2022-12-29T03:21:24;10.50;99.90
19348;DHT22;9810;52.480;9.806;2022-12-29T03:24:14;10.50;99.90
19348;DHT22;9810;52.480;9.806;2022-12-29T03:26:42;10.60;99.90
19348;DHT22;9810;52.480;9.806;2022-12-29T03:29:12;10.50;99.90
19348;DHT22;9810;52.480;9.806;2022-12-29T03:31:41;10.50;99.90
19348;DHT22;9810;52.480;9.806;2022-12-29T03:34:11;10.50;99.90
19348;DHT22;9810;52.480;9.806;2022-12-29T03:36:46;10.50;99.90
19348;DHT22;9810;52.480;9.806;2022-12-29T03:39:15;10.50;99.90
19348;DHT22;9810;52.480;9.806;2022-12-29T03:41:45;10.60;99.90
19348;DHT22;9810;52.480;9.806;2022-12-29T03:44:13;10.70;99.90
19348;DHT22;9810;52.480;9.806;2022-12-29T03:46:40;10.70;99.90
19348;DHT22;9810;52.480;9.806;2022-12-29T03:49:07;10.70;99.90
19348;DHT22;9810;52.480;9.806;2022-12-29T03:51:36;10.70;99.90
19348;DHT22;9810;52.480;9.806;2022-12-29T03:54:04;10.70;99.90
19348;DHT22;9810;52.480;9.806;2022-12-29T03:56:31;10.70;99.90
19348;DHT22;9810;52.480;9.806;2022-12-29T03:58:58;10.80;99.90
19348;DHT22;9810;52.480;9.806;2022-12-29T04:01:26;10.80;99.90
19348;DHT22;9810;52.480;9.806;2022-12-29T04:03:53;10.70;99.90
19348;DHT22;9810;52.480;9.806;2022-12-29T04:06:20;10.80;99.90
19348;DHT22;9810;52.480;9.806;2022-12-29T04:08:50;10.90;99.90
19348;DHT22;9810;52.480;9.806;2022-12-29T04:11:18;10.90;99.90
19348;DHT22;9810;52.480;9.806;2022-12-29T04:13:45;11.00;99.90
19348;DHT22;9810;52.480;9.806;2022-12-29T04:16:12;11.00;99.90
19348;DHT22;9810;52.480;9.806;2022-12-29T04:18:39;11.10;99.90
19348;DHT22;9810;52.480;9.806;2022-12-29T04:21:07;11.10;99.90
19348;DHT22;9810;52.480;9.806;2022-12-29T04:23:36;11.20;99.90
19348;DHT22;9810;52.480;9.806;2022-12-29T04:26:06;11.20;99.90
19348;DHT22;9810;52.480;9.806;2022-12-29T04:28:34;11.20;99.90
19348;DHT22;9810;52.480;9.806;2022-12-29T04:31:02;11.30;99.90
19348;DHT22;9810;52.480;9.806;2022-12-29T04:33:29;11.30;99.90
19348;DHT22;9810;52.480;9.806;2022-12-29T04:35:56;11.30;99.90
19348;DHT22;9810;52.480;9.806;2022-12-29T04:38:24;11.40;99.90
19348;DHT22;9810;52.480;9.806;2022-12-29T04:40:51;11.40;99.90
19348;DHT22;9810;52.480;9.806;2022-12-29T04:43:20;11.40;99.90
19348;DHT22;9810;52.480;9.806;2022-12-29T04:45:48;11.40;99.90
19348;DHT22;9810;52.480;9.806;2022-12-29T04:48:16;11.40;99.90
19348;DHT22;9810;52.480;9.806;2022-12-29T04:50:44;11.40;99.90
19348;DHT22;9810;52.480;9.806;2022-12-29T04:53:11;11.40;99.90
19348;DHT22;9810;52.480;9.806;2022-12-29T04:55:38;11.40;99.90
19348;DHT22;9810;52.480;9.806;2022-12-29T04:58:06;11.40;99.90
19348;DHT22;9810;52.480;9.806;2022-12-29T05:00:34;11.40;99.90
19348;DHT22;9810;52.480;9.806;2022-12-29T05:03:02;11.30;99.90
19348;DHT22;9810;52.480;9.806;2022-12-29T05:05:29;11.40;99.90
19348;DHT22;9810;52.480;9.806;2022-12-29T05:07:56;11.40;99.90
19348;DHT22;9810;52.480;9.806;2022-12-29T05:10:24;11.40;99.90
19348;DHT22;9810;52.480;9.806;2022-12-29T05:12:51;11.50;99.90
19348;DHT22;9810;52.480;9.806;2022-12-29T05:15:18;11.50;99.90
19348;DHT22;9810;52.480;9.806;2022-12-29T05:17:47;11.50;99.90
19348;DHT22;9810;52.480;9.806;2022-12-29T05:20:15;11.60;99.90
19348;DHT22;9810;52.480;9.806;2022-12-29T05:22:42;11.50;99.90
19348;DHT22;9810;52.480;9.806;2022-12-29T05:25:10;11.60;99.90
19348;DHT22;9810;52.480;9.806;2022-12-29T05:27:37;11.50;99.90
19348;DHT22;9810;52.480;9.806;2022-12-29T05:30:05;11.50;99.90
19348;DHT22;9810;52.480;9.806;2022-12-29T05:32:32;11.40;99.90
19348;DHT22;9810;52.480;9.806;2022-12-29T05:35:02;11.40;99.90
19348;DHT22;9810;52.480;9.806;2022-12-29T05:37:29;11.40;99.90
19348;DHT22;9810;52.480;9.806;2022-12-29T05:39:57;11.50;99.90
19348;DHT22;9810;52.480;9.806;2022-12-29T05:42:24;11.50;99.90
19348;DHT22;9810;52.480;9.806;2022-12-29T05:44:52;11.50;99.90
19348;DHT22;9810;52.480;9.806;2022-12-29T05:47:19;11.60;99.90
19348;DHT22;9810;52.480;9.806;2022-12-29T05:49:46;11.50;99.90
19348;DHT22;9810;52.480;9.806;2022-12-29T05:52:15;11.50;99.90
19348;DHT22;9810;52.480;9.806;2022-12-29T05:54:42;11.30;99.90
19348;DHT22;9810;52.480;9.806;2022-12-29T05:57:10;11.30;99.90
19348;DHT22;9810;52.480;9.806;2022-12-29T05:59:37;11.20;99.90
19348;DHT22;9810;52.480;9.806;2022-12-29T06:02:04;11.20;99.90
19348;DHT22;9810;52.480;9.806;2022-12-29T06:04:31;11.20;99.90
19348;DHT22;9810;52.480;9.806;2022-12-29T06:06:59;11.10;99.90
19348;DHT22;9810;52.480;9.806;2022-12-29T06:09:28;11.00;99.90
19348;DHT22;9810;52.480;9.806;2022-12-29T06:11:55;11.00;99.90
19348;DHT22;9810;52.480;9.806;2022-12-29T06:14:22;11.00;99.90
19348;DHT22;9810;52.480;9.806;2022-12-29T06:16:49;11.00;99.90
19348;DHT22;9810;52.480;9.806;2022-12-29T06:19:16;11.00;99.90
19348;DHT22;9810;52.480;9.806;2022-12-29T06:21:44;10.90;99.90
19348;DHT22;9810;52.480;9.806;2022-12-29T06:24:11;10.90;99.90
19348;DHT22;9810;52.480;9.806;2022-12-29T06:26:40;10.90;99.90
19348;DHT22;9810;52.480;9.806;2022-12-29T06:29:08;10.90;99.90
19348;DHT22;9810;52.480;9.806;2022-12-29T06:31:35;10.80;99.90
19348;DHT22;9810;52.480;9.806;2022-12-29T06:34:03;10.80;99.90
19348;DHT22;9810;52.480;9.806;2022-12-29T06:36:30;10.70;99.90
19348;DHT22;9810;52.480;9.806;2022-12-29T06:38:57;10.70;99.90
19348;DHT22;9810;52.480;9.806;2022-12-29T06:41:25;10.70;99.90
19348;DHT22;9810;52.480;9.806;2022-12-29T06:43:54;10.70;99.90
19348;DHT22;9810;52.480;9.806;2022-12-29T06:46:21;10.70;99.90
19348;DHT22;9810;52.480;9.806;2022-12-29T06:48:48;10.70;99.90
19348;DHT22;9810;52.480;9.806;2022-12-29T06:51:16;10.70;99.90
19348;DHT22;9810;52.480;9.806;2022-12-29T06:53:42;10.70;99.90
19348;DHT22;9810;52.480;9.806;2022-12-29T06:56:10;10.70;99.90
19348;DHT22;9810;52.480;9.806;2022-12-29T06:58:37;10.70;99.90
19348;DHT22;9810;52.480;9.806;2022-12-29T07:01:06;10.70;99.90
19348;DHT22;9810;52.480;9.806;2022-12-29T07:03:33;10.70;99.90
19348;DHT22;9810;52.480;9.806;2022-12-29T07:06:01;10.80;99.90
19348;DHT22;9810;52.480;9.806;2022-12-29T07:08:29;10.80;99.90
19348;DHT22;9810;52.480;9.806;2022-12-29T07:10:56;10.70;99.90
19348;DHT22;9810;52.480;9.806;2022-12-29T07:13:23;10.70;99.90
19348;DHT22;9810;52.480;9.806;2022-12-29T07:15:51;10.80;99.90
19348;DHT22;9810;52.480;9.806;2022-12-29T07:18:20;10.80;99.90
19348;DHT22;9810;52.480;9.806;2022-12-29T07:20:47;10.70;99.90
19348;DHT22;9810;52.480;9.806;2022-12-29T07:23:14;10.40;99.90
19348;DHT22;9810;52.480;9.806;2022-12-29T07:25:42;10.10;99.90
19348;DHT22;9810;52.480;9.806;2022-12-29T07:28:09;9.90;99.90
19348;DHT22;9810;52.480;9.806;2022-12-29T07:30:37;10.00;99.90
19348;DHT22;9810;52.480;9.806;2022-12-29T07:33:04;10.00;99.90
19348;DHT22;9810;52.480;9.806;2022-12-29T07:35:34;9.90;99.90
19348;DHT22;9810;52.480;9.806;2022-12-29T07:38:01;9.80;99.90
19348;DHT22;9810;52.480;9.806;2022-12-29T07:40:29;9.80;99.90
19348;DHT22;9810;52.480;9.806;2022-12-29T07:42:56;9.70;99.90
19348;DHT22;9810;52.480;9.806;2022-12-29T07:45:23;9.70;99.90
19348;DHT22;9810;52.480;9.806;2022-12-29T07:47:51;9.70;99.90
19348;DHT22;9810;52.480;9.806;2022-12-29T07:50:18;9.60;99.90
19348;DHT22;9810;52.480;9.806;2022-12-29T07:52:47;9.60;99.90
19348;DHT22;9810;52.480;9.806;2022-12-29T07:55:14;9.50;99.90
19348;DHT22;9810;52.480;9.806;2022-12-29T07:57:42;9.50;99.90
19348;DHT22;9810;52.480;9.806;2022-12-29T08:00:09;9.50;99.90
19348;DHT22;9810;52.480;9.806;2022-12-29T08:02:37;9.50;99.90
19348;DHT22;9810;52.480;9.806;2022-12-29T08:05:05;9.50;99.90
19348;DHT22;9810;52.480;9.806;2022-12-29T08:07:32;9.50;99.90
19348;DHT22;9810;52.480;9.806;2022-12-29T08:10:01;9.50;99.90
19348;DHT22;9810;52.480;9.806;2022-12-29T08:12:28;9.40;99.90
19348;DHT22;9810;52.480;9.806;2022-12-29T08:14:56;9.20;99.90
19348;DHT22;9810;52.480;9.806;2022-12-29T08:17:23;9.10;99.90
19348;DHT22;9810;52.480;9.806;2022-12-29T08:19:50;9.20;99.90
19348;DHT22;9810;52.480;9.806;2022-12-29T08:22:17;9.00;99.90
19348;DHT22;9810;52.480;9.806;2022-12-29T08:24:44;9.10;99.90
19348;DHT22;9810;52.480;9.806;2022-12-29T08:27:13;8.90;99.90
19348;DHT22;9810;52.480;9.806;2022-12-29T08:29:41;9.00;99.90
19348;DHT22;9810;52.480;9.806;2022-12-29T08:32:08;9.00;99.90
19348;DHT22;9810;52.480;9.806;2022-12-29T08:34:35;9.10;99.90
19348;DHT22;9810;52.480;9.806;2022-12-29T08:37:02;9.20;99.90
19348;DHT22;9810;52.480;9.806;2022-12-29T08:39:30;9.20;99.90
19348;DHT22;9810;52.480;9.806;2022-12-29T08:41:57;9.20;99.90
19348;DHT22;9810;52.480;9.806;2022-12-29T08:44:26;9.30;99.90
19348;DHT22;9810;52.480;9.806;2022-12-29T08:46:53;9.40;99.90
19348;DHT22;9810;52.480;9.806;2022-12-29T08:49:21;9.40;99.90
19348;DHT22;9810;52.480;9.806;2022-12-29T08:51:47;9.40;99.90
19348;DHT22;9810;52.480;9.806;2022-12-29T08:54:15;9.50;99.90
19348;DHT22;9810;52.480;9.806;2022-12-29T08:56:42;9.70;99.90
19348;DHT22;9810;52.480;9.806;2022-12-29T08:59:10;9.80;99.90
19348;DHT22;9810;52.480;9.806;2022-12-29T09:01:39;9.80;99.90
19348;DHT22;9810;52.480;9.806;2022-12-29T09:04:07;9.80;99.90
19348;DHT22;9810;52.480;9.806;2022-12-29T09:06:34;9.80;99.90
19348;DHT22;9810;52.480;9.806;2022-12-29T09:09:01;9.80;99.90
19348;DHT22;9810;52.480;9.806;2022-12-29T09:11:29;9.80;99.90
19348;DHT22;9810;52.480;9.806;2022-12-29T09:13:56;9.80;99.90
19348;DHT22;9810;52.480;9.806;2022-12-29T09:16:24;9.80;99.90
19348;DHT22;9810;52.480;9.806;2022-12-29T09:18:54;9.90;99.90
19348;DHT22;9810;52.480;9.806;2022-12-29T09:21:21;9.80;99.90
19348;DHT22;9810;52.480;9.806;2022-12-29T09:23:49;9.80;99.90
19348;DHT22;9810;52.480;9.806;2022-12-29T09:26:16;9.80;99.90
19348;DHT22;9810;52.480;9.806;2022-12-29T09:28:43;9.90;99.90
19348;DHT22;9810;52.480;9.806;2022-12-29T09:31:11;9.80;99.90
19348;DHT22;9810;52.480;9.806;2022-12-29T09:33:39;9.90;99.90
19348;DHT22;9810;52.480;9.806;2022-12-29T09:36:08;10.00;99.90
19348;DHT22;9810;52.480;9.806;2022-12-29T09:38:36;10.10;99.90
19348;DHT22;9810;52.480;9.806;2022-12-29T09:41:08;10.10;99.90
19348;DHT22;9810;52.480;9.806;2022-12-29T09:43:59;10.30;99.90
19348;DHT22;9810;52.480;9.806;2022-12-29T09:46:34;11.00;99.90
19348;DHT22;9810;52.480;9.806;2022-12-29T09:49:12;11.60;99.90
19348;DHT22;9810;52.480;9.806;2022-12-29T09:51:48;11.40;99.90
19348;DHT22;9810;52.480;9.806;2022-12-29T09:54:24;11.10;99.90
19348;DHT22;9810;52.480;9.806;2022-12-29T09:56:53;10.90;99.90
19348;DHT22;9810;52.480;9.806;2022-12-29T09:59:25;10.70;99.90
19348;DHT22;9810;52.480;9.806;2022-12-29T10:01:59;10.50;99.90
19348;DHT22;9810;52.480;9.806;2022-12-29T10:04:31;10.40;99.90
19348;DHT22;9810;52.480;9.806;2022-12-29T10:07:04;10.40;99.90
19348;DHT22;9810;52.480;9.806;2022-12-29T10:09:43;10.40;99.90
19348;DHT22;9810;52.480;9.806;2022-12-29T10:12:20;10.30;99.90
19348;DHT22;9810;52.480;9.806;2022-12-29T10:15:00;10.30;99.90
19348;DHT22;9810;52.480;9.806;2022-12-29T10:17:36;10.30;99.90
19348;DHT22;9810;52.480;9.806;2022-12-29T10:20:21;10.50;99.90
19348;DHT22;9810;52.480;9.806;2022-12-29T10:23:10;11.80;99.90
19348;DHT22;9810;52.480;9.806;2022-12-29T10:25:41;13.10;99.90
19348;DHT22;9810;52.480;9.806;2022-12-29T10:28:17;13.80;99.90
19348;DHT22;9810;52.480;9.806;2022-12-29T10:30:47;14.10;99.90
19348;DHT22;9810;52.480;9.806;2022-12-29T10:33:19;14.40;99.90
19348;DHT22;9810;52.480;9.806;2022-12-29T10:35:47;13.90;99.90
19348;DHT22;9810;52.480;9.806;2022-12-29T10:38:22;13.20;99.90
19348;DHT22;9810;52.480;9.806;2022-12-29T10:40:55;12.90;99.90
19348;DHT22;9810;52.480;9.806;2022-12-29T10:43:26;12.90;99.90
19348;DHT22;9810;52.480;9.806;2022-12-29T10:45:54;13.00;99.90
19348;DHT22;9810;52.480;9.806;2022-12-29T10:48:25;13.00;99.90
19348;DHT22;9810;52.480;9.806;2022-12-29T10:50:57;13.00;99.90
19348;DHT22;9810;52.480;9.806;2022-12-29T10:53:32;12.90;99.90
19348;DHT22;9810;52.480;9.806;2022-12-29T10:56:04;12.90;99.90
19348;DHT22;9810;52.480;9.806;2022-12-29T10:58:36;12.90;99.90
19348;DHT22;9810;52.480;9.806;2022-12-29T11:01:04;13.00;99.90
19348;DHT22;9810;52.480;9.806;2022-12-29T11:03:52;13.00;99.90
19348;DHT22;9810;52.480;9.806;2022-12-29T11:06:24;13.00;99.90
19348;DHT22;9810;52.480;9.806;2022-12-29T11:08:57;12.90;99.90
19348;DHT22;9810;52.480;9.806;2022-12-29T11:11:26;12.70;99.90
19348;DHT22;9810;52.480;9.806;2022-12-29T11:13:58;12.80;99.90
19348;DHT22;9810;52.480;9.806;2022-12-29T11:16:30;12.90;99.90
19348;DHT22;9810;52.480;9.806;2022-12-29T11:18:58;12.60;99.90
19348;DHT22;9810;52.480;9.806;2022-12-29T11:21:31;12.20;99.90
19348;DHT22;9810;52.480;9.806;2022-12-29T11:24:01;12.00;99.90
19348;DHT22;9810;52.480;9.806;2022-12-29T11:26:29;11.80;99.90
19348;DHT22;9810;52.480;9.806;2022-12-29T11:29:22;12.00;99.90
19348;DHT22;9810;52.480;9.806;2022-12-29T11:31:51;12.20;99.90
19348;DHT22;9810;52.480;9.806;2022-12-29T11:34:21;12.30;99.90
19348;DHT22;9810;52.480;9.806;2022-12-29T11:36:52;12.50;99.90
19348;DHT22;9810;52.480;9.806;2022-12-29T11:39:34;12.50;99.90
19348;DHT22;9810;52.480;9.806;2022-12-29T11:42:03;12.50;99.90
19348;DHT22;9810;52.480;9.806;2022-12-29T11:44:37;12.60;99.90
19348;DHT22;9810;52.480;9.806;2022-12-29T11:47:14;12.60;99.90
19348;DHT22;9810;52.480;9.806;2022-12-29T11:49:50;12.60;99.90
19348;DHT22;9810;52.480;9.806;2022-12-29T11:52:21;12.50;99.90
19348;DHT22;9810;52.480;9.806;2022-12-29T11:55:21;12.60;99.90
19348;DHT22;9810;52.480;9.806;2022-12-29T11:57:52;12.30;99.90
19348;DHT22;9810;52.480;9.806;2022-12-29T12:00:23;12.10;99.90
19348;DHT22;9810;52.480;9.806;2022-12-29T12:02:56;12.00;99.90
19348;DHT22;9810;52.480;9.806;2022-12-29T12:05:39;12.00;99.90
19348;DHT22;9810;52.480;9.806;2022-12-29T12:08:11;11.90;99.90
19348;DHT22;9810;52.480;9.806;2022-12-29T12:10:46;11.90;99.90
19348;DHT22;9810;52.480;9.806;2022-12-29T12:13:19;12.00;99.90
19348;DHT22;9810;52.480;9.806;2022-12-29T12:15:51;12.00;99.90
19348;DHT22;9810;52.480;9.806;2022-12-29T12:18:32;12.00;99.90
19348;DHT22;9810;52.480;9.806;2022-12-29T12:21:06;12.10;99.90
19348;DHT22;9810;52.480;9.806;2022-12-29T12:23:48;12.00;99.90
19348;DHT22;9810;52.480;9.806;2022-12-29T12:26:30;11.90;99.90
19348;DHT22;9810;52.480;9.806;2022-12-29T12:29:01;11.80;99.90
19348;DHT22;9810;52.480;9.806;2022-12-29T12:31:42;11.80;99.90
19348;DHT22;9810;52.480;9.806;2022-12-29T12:34:16;11.90;99.90
19348;DHT22;9810;52.480;9.806;2022-12-29T12:37:06;11.90;99.90
19348;DHT22;9810;52.480;9.806;2022-12-29T12:39:43;11.90;99.90
19348;DHT22;9810;52.480;9.806;2022-12-29T12:42:29;11.90;99.90
19348;DHT22;9810;52.480;9.806;2022-12-29T12:45:22;11.90;99.90
19348;DHT22;9810;52.480;9.806;2022-12-29T12:48:03;11.80;99.90
19348;DHT22;9810;52.480;9.806;2022-12-29T12:50:40;11.80;99.90
19348;DHT22;9810;52.480;9.806;2022-12-29T12:53:22;11.70;99.90
19348;DHT22;9810;52.480;9.806;2022-12-29T12:56:04;11.70;99.90
19348;DHT22;9810;52.480;9.806;2022-12-29T12:58:45;11.70;99.90
19348;DHT22;9810;52.480;9.806;2022-12-29T13:01:29;11.70;99.90
19348;DHT22;9810;52.480;9.806;2022-12-29T13:04:08;11.60;99.90
19348;DHT22;9810;52.480;9.806;2022-12-29T13:06:46;11.60;99.90
19348;DHT22;9810;52.480;9.806;2022-12-29T13:09:41;11.70;99.90
19348;DHT22;9810;52.480;9.806;2022-12-29T13:12:19;11.60;99.90
19348;DHT22;9810;52.480;9.806;2022-12-29T13:14:59;11.60;99.90
19348;DHT22;9810;52.480;9.806;2022-12-29T13:17:34;11.60;99.90
19348;DHT22;9810;52.480;9.806;2022-12-29T13:20:10;11.50;99.90
19348;DHT22;9810;52.480;9.806;2022-12-29T13:22:50;11.50;99.90
19348;DHT22;9810;52.480;9.806;2022-12-29T13:25:29;11.60;99.90
19348;DHT22;9810;52.480;9.806;2022-12-29T13:28:04;11.50;99.90
19348;DHT22;9810;52.480;9.806;2022-12-29T13:30:40;11.50;99.90
19348;DHT22;9810;52.480;9.806;2022-12-29T13:33:15;11.50;99.90
19348;DHT22;9810;52.480;9.806;2022-12-29T13:35:56;11.50;99.90
19348;DHT22;9810;52.480;9.806;2022-12-29T13:38:30;11.50;99.90
19348;DHT22;9810;52.480;9.806;2022-12-29T13:41:03;11.50;99.90
19348;DHT22;9810;52.480;9.806;2022-12-29T13:43:33;11.50;99.90
19348;DHT22;9810;52.480;9.806;2022-12-29T13:46:07;11.60;99.90
19348;DHT22;9810;52.480;9.806;2022-12-29T13:48:39;11.60;99.90
19348;DHT22;9810;52.480;9.806;2022-12-29T13:51:09;11.50;99.90
19348;DHT22;9810;52.480;9.806;2022-12-29T13:53:42;11.60;99.90
19348;DHT22;9810;52.480;9.806;2022-12-29T13:56:21;11.50;99.90
19348;DHT22;9810;52.480;9.806;2022-12-29T13:58:56;11.50;99.90
19348;DHT22;9810;52.480;9.806;2022-12-29T14:01:31;11.50;99.90
19348;DHT22;9810;52.480;9.806;2022-12-29T14:04:08;11.60;99.90
19348;DHT22;9810;52.480;9.806;2022-12-29T14:06:37;11.50;99.90
19348;DHT22;9810;52.480;9.806;2022-12-29T14:11:56;11.50;99.90
19348;DHT22;9810;52.480;9.806;2022-12-29T14:14:25;11.50;99.90
19348;DHT22;9810;52.480;9.806;2022-12-29T14:17:09;11.50;99.90
19348;DHT22;9810;52.480;9.806;2022-12-29T14:19:39;11.40;99.90
19348;DHT22;9810;52.480;9.806;2022-12-29T14:22:09;11.40;99.90
19348;DHT22;9810;52.480;9.806;2022-12-29T14:24:41;11.40;99.90
19348;DHT22;9810;52.480;9.806;2022-12-29T14:30:47;11.40;99.90
19348;DHT22;9810;52.480;9.806;2022-12-29T14:33:17;11.30;99.90
19348;DHT22;9810;52.480;9.806;2022-12-29T14:35:46;11.40;99.90
19348;DHT22;9810;52.480;9.806;2022-12-29T14:38:23;11.30;99.90
19348;DHT22;9810;52.480;9.806;2022-12-29T14:40:51;11.30;99.90
19348;DHT22;9810;52.480;9.806;2022-12-29T14:43:26;11.30;99.90
19348;DHT22;9810;52.480;9.806;2022-12-29T14:45:59;11.30;99.90
19348;DHT22;9810;52.480;9.806;2022-12-29T14:48:37;11.20;99.90
19348;DHT22;9810;52.480;9.806;2022-12-29T14:51:20;11.20;99.90
19348;DHT22;9810;52.480;9.806;2022-12-29T14:53:49;11.20;99.90
19348;DHT22;9810;52.480;9.806;2022-12-29T14:56:18;11.10;99.90
19348;DHT22;9810;52.480;9.806;2022-12-29T14:58:52;11.10;99.90
19348;DHT22;9810;52.480;9.806;2022-12-29T15:01:26;11.10;99.90
19348;DHT22;9810;52.480;9.806;2022-12-29T15:03:57;11.10;99.90
19348;DHT22;9810;52.480;9.806;2022-12-29T15:06:29;11.10;99.90
19348;DHT22;9810;52.480;9.806;2022-12-29T15:09:02;11.10;99.90
19348;DHT22;9810;52.480;9.806;2022-12-29T15:11:44;11.00;99.90
19348;DHT22;9810;52.480;9.806;2022-12-29T15:14:39;11.00;99.90
19348;DHT22;9810;52.480;9.806;2022-12-29T15:17:21;11.00;99.90
19348;DHT22;9810;52.480;9.806;2022-12-29T15:19:52;11.00;99.90
19348;DHT22;9810;52.480;9.806;2022-12-29T15:22:20;10.90;99.90
19348;DHT22;9810;52.480;9.806;2022-12-29T15:24:50;11.00;99.90
19348;DHT22;9810;52.480;9.806;2022-12-29T15:27:21;11.00;99.90
19348;DHT22;9810;52.480;9.806;2022-12-29T15:29:56;11.00;99.90
19348;DHT22;9810;52.480;9.806;2022-12-29T15:32:25;10.90;99.90
19348;DHT22;9810;52.480;9.806;2022-12-29T15:34:56;10.90;99.90
19348;DHT22;9810;52.480;9.806;2022-12-29T15:37:27;10.80;99.90
19348;DHT22;9810;52.480;9.806;2022-12-29T15:39:55;10.70;99.90
19348;DHT22;9810;52.480;9.806;2022-12-29T15:42:50;10.70;99.90
19348;DHT22;9810;52.480;9.806;2022-12-29T15:45:19;10.70;99.90
19348;DHT22;9810;52.480;9.806;2022-12-29T15:47:47;10.70;99.90
19348;DHT22;9810;52.480;9.806;2022-12-29T15:50:22;10.70;99.90
19348;DHT22;9810;52.480;9.806;2022-12-29T15:52:50;10.70;99.90
19348;DHT22;9810;52.480;9.806;2022-12-29T15:55:23;10.70;99.90
19348;DHT22;9810;52.480;9.806;2022-12-29T15:57:56;10.60;99.90
19348;DHT22;9810;52.480;9.806;2022-12-29T16:00:25;10.60;99.90
19348;DHT22;9810;52.480;9.806;2022-12-29T16:02:54;10.60;99.90
19348;DHT22;9810;52.480;9.806;2022-12-29T16:05:24;10.50;99.90
19348;DHT22;9810;52.480;9.806;2022-12-29T16:07:59;10.50;99.90
19348;DHT22;9810;52.480;9.806;2022-12-29T16:10:30;10.40;99.90
19348;DHT22;9810;52.480;9.806;2022-12-29T16:13:21;10.40;99.90
19348;DHT22;9810;52.480;9.806;2022-12-29T16:15:56;10.30;99.90
19348;DHT22;9810;52.480;9.806;2022-12-29T16:18:29;10.30;99.90
19348;DHT22;9810;52.480;9.806;2022-12-29T16:21:02;10.30;99.90
19348;DHT22;9810;52.480;9.806;2022-12-29T16:23:31;10.30;99.90
19348;DHT22;9810;52.480;9.806;2022-12-29T16:25:59;10.30;99.90
19348;DHT22;9810;52.480;9.806;2022-12-29T16:28:35;10.30;99.90